Hauptseite
METAR-TAF:

METAR-TAF

Flughäfen :

Flughafen Lahr

Lahr, Deutschland

Breite: 48-22-09N, Länge: 007-49-40E, Höhe: 156 m

Beobachtung

Neuester Wetterbericht von vor 23 Minuten, um 15:50 UTC
Wind 4 kt aus Nord/Nordwest
Temperatur 6°C
Luftfeuchtigkeit 93%
Luftdruck 1028 hPa
Sichtweite: 0250 m
Geschlossene Wolkendecke in der Höhe von 100 ft
Nebel

METAR: EDTL 141550Z 33004KT 0250 R21/0750N FG OVC001 06/05 Q1028

Zeit: 17:13 (16:13 UTC)

Prognose

Neuester Wetterbericht von vor 2 Stunden und 13 Minuten, um 14:00 UTC
Gültige Prognose vom 14 um 15 UTC bis 14 um 24 UTC
Wind 3 kt aus unterschiedlichen Richtungen
Sichtweite: 2000 m
Durchbrochene Bewölkung in der Höhe von 300 ft
feuchter Dunst
Zeitweise
vom 14 um 15 UTC bis 14 um 24 UTC
Sichtweite: 0500 m
Geschlossene Wolkendecke in der Höhe von 100 ft
Nebel

TAF: EDTL 141400Z 1415/1424 VRB03KT 2000 BR BKN003 TEMPO 1415/1424 0500 FG OVC001

Wetterbeobachtungen und Prognosen von mehr als 4000 Flughäfen (METAR und TAF Bericht).

Die verfügbaren Stationen werden durch gelbe und rote Markierungen auf der Karte dargestellt.

Führen Sie die Maus auf sie, um den Namen der Station zu sehen.

Darauf klicken, um die Beobachtung von Wetterbeobachtungen und Prognosen zu sehen.

Um die Karte zu ändern : klicken Sie auf den grünen Tasten mit einem schwarzen Kreuz Zum Vergrößern, auf den grünen Button mit einem Gedankenstrich zu verkleinern, oder auf die grünen Pfeile für benachbarte Karten.


METAR-TAF: